sensor_id;sensor_type;location;lat;lon;timestamp;temperature;humidity
12125;DHT22;6126;57.908;16.490;2023-04-19T00:00:51;4.70;65.40
12125;DHT22;6126;57.908;16.490;2023-04-19T00:03:17;4.90;66.60
12125;DHT22;6126;57.908;16.490;2023-04-19T00:05:43;4.90;66.00
12125;DHT22;6126;57.908;16.490;2023-04-19T00:08:09;4.90;65.90
12125;DHT22;6126;57.908;16.490;2023-04-19T00:10:35;4.80;65.80
12125;DHT22;6126;57.908;16.490;2023-04-19T00:13:01;5.10;66.00
12125;DHT22;6126;57.908;16.490;2023-04-19T00:15:27;5.00;65.90
12125;DHT22;6126;57.908;16.490;2023-04-19T00:17:53;4.90;65.80
12125;DHT22;6126;57.908;16.490;2023-04-19T00:20:20;4.90;65.90
12125;DHT22;6126;57.908;16.490;2023-04-19T00:22:46;4.60;65.80
12125;DHT22;6126;57.908;16.490;2023-04-19T00:25:12;4.80;66.20
12125;DHT22;6126;57.908;16.490;2023-04-19T00:27:38;4.80;66.20
12125;DHT22;6126;57.908;16.490;2023-04-19T00:30:04;4.70;66.20
12125;DHT22;6126;57.908;16.490;2023-04-19T00:32:31;4.60;66.20
12125;DHT22;6126;57.908;16.490;2023-04-19T00:34:57;4.50;66.20
12125;DHT22;6126;57.908;16.490;2023-04-19T00:37:22;4.50;66.20
12125;DHT22;6126;57.908;16.490;2023-04-19T00:39:48;4.80;66.60
12125;DHT22;6126;57.908;16.490;2023-04-19T00:42:14;4.50;66.20
12125;DHT22;6126;57.908;16.490;2023-04-19T00:44:40;4.70;66.50
12125;DHT22;6126;57.908;16.490;2023-04-19T00:47:07;4.70;66.60
12125;DHT22;6126;57.908;16.490;2023-04-19T00:49:33;4.70;66.60
12125;DHT22;6126;57.908;16.490;2023-04-19T00:51:59;4.70;66.70
12125;DHT22;6126;57.908;16.490;2023-04-19T00:54:25;4.60;66.70
12125;DHT22;6126;57.908;16.490;2023-04-19T00:56:51;4.70;66.80
12125;DHT22;6126;57.908;16.490;2023-04-19T00:59:17;4.60;66.80
12125;DHT22;6126;57.908;16.490;2023-04-19T01:01:43;4.50;66.90
12125;DHT22;6126;57.908;16.490;2023-04-19T01:04:09;4.70;67.00
12125;DHT22;6126;57.908;16.490;2023-04-19T01:06:36;4.40;66.90
12125;DHT22;6126;57.908;16.490;2023-04-19T01:09:03;4.30;66.90
12125;DHT22;6126;57.908;16.490;2023-04-19T01:11:29;4.40;67.10
12125;DHT22;6126;57.908;16.490;2023-04-19T01:13:55;4.40;67.20
12125;DHT22;6126;57.908;16.490;2023-04-19T01:16:24;4.30;67.20
12125;DHT22;6126;57.908;16.490;2023-04-19T01:18:51;4.30;67.40
12125;DHT22;6126;57.908;16.490;2023-04-19T01:21:17;4.20;68.00
12125;DHT22;6126;57.908;16.490;2023-04-19T01:23:44;4.50;67.60
12125;DHT22;6126;57.908;16.490;2023-04-19T01:26:10;4.20;67.40
12125;DHT22;6126;57.908;16.490;2023-04-19T01:28:36;4.20;67.60
12125;DHT22;6126;57.908;16.490;2023-04-19T01:31:02;4.10;67.50
12125;DHT22;6126;57.908;16.490;2023-04-19T01:33:28;4.20;67.70
12125;DHT22;6126;57.908;16.490;2023-04-19T01:35:54;4.30;67.90
12125;DHT22;6126;57.908;16.490;2023-04-19T01:38:20;4.30;67.80
12125;DHT22;6126;57.908;16.490;2023-04-19T01:40:45;4.20;67.80
12125;DHT22;6126;57.908;16.490;2023-04-19T01:43:13;4.30;67.90
12125;DHT22;6126;57.908;16.490;2023-04-19T01:45:41;4.30;67.90
12125;DHT22;6126;57.908;16.490;2023-04-19T01:48:06;4.10;67.70
12125;DHT22;6126;57.908;16.490;2023-04-19T01:50:32;4.30;68.00
12125;DHT22;6126;57.908;16.490;2023-04-19T01:52:59;4.10;67.90
12125;DHT22;6126;57.908;16.490;2023-04-19T01:55:25;4.20;68.10
12125;DHT22;6126;57.908;16.490;2023-04-19T01:57:52;4.20;68.10
12125;DHT22;6126;57.908;16.490;2023-04-19T02:00:19;4.40;68.30
12125;DHT22;6126;57.908;16.490;2023-04-19T02:02:45;4.10;68.10
12125;DHT22;6126;57.908;16.490;2023-04-19T02:05:11;4.00;68.20
12125;DHT22;6126;57.908;16.490;2023-04-19T02:07:37;4.00;68.40
12125;DHT22;6126;57.908;16.490;2023-04-19T02:10:04;4.20;69.60
12125;DHT22;6126;57.908;16.490;2023-04-19T02:12:33;4.10;68.70
12125;DHT22;6126;57.908;16.490;2023-04-19T02:14:59;3.80;68.50
12125;DHT22;6126;57.908;16.490;2023-04-19T02:17:28;4.10;69.20
12125;DHT22;6126;57.908;16.490;2023-04-19T02:19:54;4.10;69.00
12125;DHT22;6126;57.908;16.490;2023-04-19T02:22:20;3.90;68.90
12125;DHT22;6126;57.908;16.490;2023-04-19T02:24:48;3.80;68.90
12125;DHT22;6126;57.908;16.490;2023-04-19T02:27:15;3.70;68.90
12125;DHT22;6126;57.908;16.490;2023-04-19T02:29:41;3.60;69.00
12125;DHT22;6126;57.908;16.490;2023-04-19T02:32:07;3.90;69.40
12125;DHT22;6126;57.908;16.490;2023-04-19T02:34:34;3.80;69.40
12125;DHT22;6126;57.908;16.490;2023-04-19T02:37:00;3.70;69.40
12125;DHT22;6126;57.908;16.490;2023-04-19T02:39:28;3.70;69.40
12125;DHT22;6126;57.908;16.490;2023-04-19T02:41:54;3.80;69.70
12125;DHT22;6126;57.908;16.490;2023-04-19T02:44:20;3.80;69.70
12125;DHT22;6126;57.908;16.490;2023-04-19T02:46:50;3.50;69.30
12125;DHT22;6126;57.908;16.490;2023-04-19T02:49:17;3.60;69.50
12125;DHT22;6126;57.908;16.490;2023-04-19T02:51:44;3.60;69.50
12125;DHT22;6126;57.908;16.490;2023-04-19T02:54:10;3.90;70.00
12125;DHT22;6126;57.908;16.490;2023-04-19T02:56:37;3.60;69.70
12125;DHT22;6126;57.908;16.490;2023-04-19T02:59:03;3.60;69.70
12125;DHT22;6126;57.908;16.490;2023-04-19T03:01:30;3.60;69.90
12125;DHT22;6126;57.908;16.490;2023-04-19T03:03:57;3.70;70.10
12125;DHT22;6126;57.908;16.490;2023-04-19T03:06:23;3.70;70.20
12125;DHT22;6126;57.908;16.490;2023-04-19T03:08:49;3.60;70.20
12125;DHT22;6126;57.908;16.490;2023-04-19T03:11:16;3.40;70.10
12125;DHT22;6126;57.908;16.490;2023-04-19T03:13:42;3.50;70.20
12125;DHT22;6126;57.908;16.490;2023-04-19T03:16:08;3.60;70.40
12125;DHT22;6126;57.908;16.490;2023-04-19T03:18:35;3.60;70.40
12125;DHT22;6126;57.908;16.490;2023-04-19T03:21:01;3.50;70.50
12125;DHT22;6126;57.908;16.490;2023-04-19T03:23:28;3.40;70.40
12125;DHT22;6126;57.908;16.490;2023-04-19T03:25:54;3.40;70.70
12125;DHT22;6126;57.908;16.490;2023-04-19T03:28:21;3.30;70.70
12125;DHT22;6126;57.908;16.490;2023-04-19T03:30:47;3.40;70.70
12125;DHT22;6126;57.908;16.490;2023-04-19T03:33:13;3.50;70.90
12125;DHT22;6126;57.908;16.490;2023-04-19T03:35:39;3.30;70.70
12125;DHT22;6126;57.908;16.490;2023-04-19T03:38:05;3.50;71.00
12125;DHT22;6126;57.908;16.490;2023-04-19T03:40:36;3.40;71.00
12125;DHT22;6126;57.908;16.490;2023-04-19T03:43:03;3.60;71.20
12125;DHT22;6126;57.908;16.490;2023-04-19T03:45:29;3.50;71.10
12125;DHT22;6126;57.908;16.490;2023-04-19T03:47:55;3.40;71.10
12125;DHT22;6126;57.908;16.490;2023-04-19T03:50:21;3.40;71.30
12125;DHT22;6126;57.908;16.490;2023-04-19T03:52:47;3.30;71.20
12125;DHT22;6126;57.908;16.490;2023-04-19T03:55:13;3.50;71.50
12125;DHT22;6126;57.908;16.490;2023-04-19T03:57:39;3.50;71.60
12125;DHT22;6126;57.908;16.490;2023-04-19T04:00:05;3.50;71.60
12125;DHT22;6126;57.908;16.490;2023-04-19T04:02:32;3.60;71.80
12125;DHT22;6126;57.908;16.490;2023-04-19T04:04:58;3.20;71.30
12125;DHT22;6126;57.908;16.490;2023-04-19T04:07:24;3.30;71.50
12125;DHT22;6126;57.908;16.490;2023-04-19T04:09:50;3.40;71.60
12125;DHT22;6126;57.908;16.490;2023-04-19T04:12:16;3.60;71.70
12125;DHT22;6126;57.908;16.490;2023-04-19T04:14:42;3.60;71.70
12125;DHT22;6126;57.908;16.490;2023-04-19T04:17:08;3.60;71.60
12125;DHT22;6126;57.908;16.490;2023-04-19T04:19:34;3.40;71.40
12125;DHT22;6126;57.908;16.490;2023-04-19T04:21:59;3.70;71.80
12125;DHT22;6126;57.908;16.490;2023-04-19T04:24:26;3.70;71.80
12125;DHT22;6126;57.908;16.490;2023-04-19T04:26:52;3.60;71.70
12125;DHT22;6126;57.908;16.490;2023-04-19T04:29:18;3.50;71.60
12125;DHT22;6126;57.908;16.490;2023-04-19T04:31:44;3.50;71.70
12125;DHT22;6126;57.908;16.490;2023-04-19T04:34:10;3.80;72.00
12125;DHT22;6126;57.908;16.490;2023-04-19T04:36:36;3.90;72.10
12125;DHT22;6126;57.908;16.490;2023-04-19T04:39:03;3.70;71.90
12125;DHT22;6126;57.908;16.490;2023-04-19T04:41:30;3.50;71.60
12125;DHT22;6126;57.908;16.490;2023-04-19T04:43:59;3.60;71.70
12125;DHT22;6126;57.908;16.490;2023-04-19T04:46:26;3.70;71.80
12125;DHT22;6126;57.908;16.490;2023-04-19T04:48:52;3.90;71.90
12125;DHT22;6126;57.908;16.490;2023-04-19T04:51:18;4.10;72.10
12125;DHT22;6126;57.908;16.490;2023-04-19T04:53:44;3.80;71.70
12125;DHT22;6126;57.908;16.490;2023-04-19T04:56:10;4.00;71.90
12125;DHT22;6126;57.908;16.490;2023-04-19T04:58:36;4.00;71.80
12125;DHT22;6126;57.908;16.490;2023-04-19T05:01:02;4.30;72.00
12125;DHT22;6126;57.908;16.490;2023-04-19T05:03:28;4.40;72.00
12125;DHT22;6126;57.908;16.490;2023-04-19T05:05:54;4.10;71.60
12125;DHT22;6126;57.908;16.490;2023-04-19T05:08:20;4.40;71.90
12125;DHT22;6126;57.908;16.490;2023-04-19T05:10:46;4.20;71.60
12125;DHT22;6126;57.908;16.490;2023-04-19T05:13:12;4.40;71.80
12125;DHT22;6126;57.908;16.490;2023-04-19T05:15:38;4.50;71.70
12125;DHT22;6126;57.908;16.490;2023-04-19T05:18:05;4.80;71.70
12125;DHT22;6126;57.908;16.490;2023-04-19T05:20:31;4.80;71.30
12125;DHT22;6126;57.908;16.490;2023-04-19T05:22:59;4.90;71.30
12125;DHT22;6126;57.908;16.490;2023-04-19T05:25:26;5.10;71.30
12125;DHT22;6126;57.908;16.490;2023-04-19T05:27:52;4.90;71.00
12125;DHT22;6126;57.908;16.490;2023-04-19T05:30:18;5.00;70.90
12125;DHT22;6126;57.908;16.490;2023-04-19T05:32:44;5.40;71.30
12125;DHT22;6126;57.908;16.490;2023-04-19T05:35:11;5.10;70.90
12125;DHT22;6126;57.908;16.490;2023-04-19T05:37:37;5.40;71.10
12125;DHT22;6126;57.908;16.490;2023-04-19T05:40:04;5.60;71.10
12125;DHT22;6126;57.908;16.490;2023-04-19T05:42:34;5.70;71.10
12125;DHT22;6126;57.908;16.490;2023-04-19T05:45:00;5.80;71.10
12125;DHT22;6126;57.908;16.490;2023-04-19T05:47:26;5.90;70.90
12125;DHT22;6126;57.908;16.490;2023-04-19T05:49:52;5.90;70.70
12125;DHT22;6126;57.908;16.490;2023-04-19T05:52:18;6.00;70.80
12125;DHT22;6126;57.908;16.490;2023-04-19T05:54:44;6.00;70.70
12125;DHT22;6126;57.908;16.490;2023-04-19T05:57:09;6.10;70.60
12125;DHT22;6126;57.908;16.490;2023-04-19T05:59:35;5.90;70.30
12125;DHT22;6126;57.908;16.490;2023-04-19T06:02:01;6.20;70.50
12125;DHT22;6126;57.908;16.490;2023-04-19T06:04:27;6.20;70.30
12125;DHT22;6126;57.908;16.490;2023-04-19T06:06:53;6.10;70.10
12125;DHT22;6126;57.908;16.490;2023-04-19T06:09:19;6.30;70.10
12125;DHT22;6126;57.908;16.490;2023-04-19T06:11:45;6.50;70.10
12125;DHT22;6126;57.908;16.490;2023-04-19T06:14:11;6.40;69.90
12125;DHT22;6126;57.908;16.490;2023-04-19T06:16:40;6.60;69.90
12125;DHT22;6126;57.908;16.490;2023-04-19T06:19:06;6.60;69.60
12125;DHT22;6126;57.908;16.490;2023-04-19T06:21:33;6.70;69.60
12125;DHT22;6126;57.908;16.490;2023-04-19T06:23:59;6.80;69.50
12125;DHT22;6126;57.908;16.490;2023-04-19T06:26:25;6.80;69.50
12125;DHT22;6126;57.908;16.490;2023-04-19T06:28:51;6.90;69.40
12125;DHT22;6126;57.908;16.490;2023-04-19T06:31:17;7.20;69.30
12125;DHT22;6126;57.908;16.490;2023-04-19T06:33:43;7.30;69.30
12125;DHT22;6126;57.908;16.490;2023-04-19T06:36:09;7.20;69.00
12125;DHT22;6126;57.908;16.490;2023-04-19T06:38:35;7.60;69.40
12125;DHT22;6126;57.908;16.490;2023-04-19T06:41:03;7.40;68.90
12125;DHT22;6126;57.908;16.490;2023-04-19T06:43:29;7.50;68.70
12125;DHT22;6126;57.908;16.490;2023-04-19T06:46:02;7.60;68.70
12125;DHT22;6126;57.908;16.490;2023-04-19T06:48:32;7.70;68.60
12125;DHT22;6126;57.908;16.490;2023-04-19T06:50:59;7.90;68.70
12125;DHT22;6126;57.908;16.490;2023-04-19T06:53:25;7.90;68.70
12125;DHT22;6126;57.908;16.490;2023-04-19T06:56:01;7.80;68.10
12125;DHT22;6126;57.908;16.490;2023-04-19T06:58:29;8.10;68.10
12125;DHT22;6126;57.908;16.490;2023-04-19T07:00:56;8.00;68.30
12125;DHT22;6126;57.908;16.490;2023-04-19T07:03:23;8.40;68.10
12125;DHT22;6126;57.908;16.490;2023-04-19T07:05:49;8.20;67.70
12125;DHT22;6126;57.908;16.490;2023-04-19T07:08:16;8.30;67.50
12125;DHT22;6126;57.908;16.490;2023-04-19T07:10:42;8.50;67.60
12125;DHT22;6126;57.908;16.490;2023-04-19T07:13:11;8.50;67.20
12125;DHT22;6126;57.908;16.490;2023-04-19T07:15:38;8.80;67.30
12125;DHT22;6126;57.908;16.490;2023-04-19T07:18:04;8.70;67.70
12125;DHT22;6126;57.908;16.490;2023-04-19T07:20:30;8.80;66.80
12125;DHT22;6126;57.908;16.490;2023-04-19T07:22:58;9.00;66.70
12125;DHT22;6126;57.908;16.490;2023-04-19T07:25:25;9.00;66.30
12125;DHT22;6126;57.908;16.490;2023-04-19T07:27:52;9.20;66.30
12125;DHT22;6126;57.908;16.490;2023-04-19T07:30:19;9.10;65.90
12125;DHT22;6126;57.908;16.490;2023-04-19T07:32:45;9.40;65.90
12125;DHT22;6126;57.908;16.490;2023-04-19T07:35:11;9.60;65.70
12125;DHT22;6126;57.908;16.490;2023-04-19T07:37:37;9.50;65.40
12125;DHT22;6126;57.908;16.490;2023-04-19T07:40:04;9.80;65.50
12125;DHT22;6126;57.908;16.490;2023-04-19T07:42:30;9.50;64.90
12125;DHT22;6126;57.908;16.490;2023-04-19T07:44:56;9.70;64.90
12125;DHT22;6126;57.908;16.490;2023-04-19T07:47:24;9.70;64.70
12125;DHT22;6126;57.908;16.490;2023-04-19T07:49:53;9.60;64.30
12125;DHT22;6126;57.908;16.490;2023-04-19T07:52:20;9.70;64.20
12125;DHT22;6126;57.908;16.490;2023-04-19T07:54:46;9.80;64.10
12125;DHT22;6126;57.908;16.490;2023-04-19T07:57:12;10.20;63.00
12125;DHT22;6126;57.908;16.490;2023-04-19T07:59:37;10.10;62.70
12125;DHT22;6126;57.908;16.490;2023-04-19T08:02:03;10.10;62.30
12125;DHT22;6126;57.908;16.490;2023-04-19T08:04:30;10.30;62.50
12125;DHT22;6126;57.908;16.490;2023-04-19T08:06:55;10.20;62.10
12125;DHT22;6126;57.908;16.490;2023-04-19T08:09:21;10.30;61.80
12125;DHT22;6126;57.908;16.490;2023-04-19T08:11:47;10.50;61.60
12125;DHT22;6126;57.908;16.490;2023-04-19T08:14:13;10.60;61.60
12125;DHT22;6126;57.908;16.490;2023-04-19T08:16:39;10.70;61.40
12125;DHT22;6126;57.908;16.490;2023-04-19T08:19:05;10.80;61.30
12125;DHT22;6126;57.908;16.490;2023-04-19T08:21:31;10.60;60.70
12125;DHT22;6126;57.908;16.490;2023-04-19T08:23:57;11.10;60.90
12125;DHT22;6126;57.908;16.490;2023-04-19T08:26:22;10.80;60.30
12125;DHT22;6126;57.908;16.490;2023-04-19T08:28:48;11.40;60.60
12125;DHT22;6126;57.908;16.490;2023-04-19T08:31:16;11.20;60.00
12125;DHT22;6126;57.908;16.490;2023-04-19T08:33:44;11.20;59.80
12125;DHT22;6126;57.908;16.490;2023-04-19T08:36:10;11.60;60.00
12125;DHT22;6126;57.908;16.490;2023-04-19T08:38:36;11.50;59.80
12125;DHT22;6126;57.908;16.490;2023-04-19T08:41:03;11.40;59.50
12125;DHT22;6126;57.908;16.490;2023-04-19T08:43:29;11.70;59.40
12125;DHT22;6126;57.908;16.490;2023-04-19T08:46:00;11.60;58.90
12125;DHT22;6126;57.908;16.490;2023-04-19T08:48:28;11.90;59.00
12125;DHT22;6126;57.908;16.490;2023-04-19T08:50:57;12.10;58.90
12125;DHT22;6126;57.908;16.490;2023-04-19T08:53:27;12.20;58.70
12125;DHT22;6126;57.908;16.490;2023-04-19T08:55:55;12.10;58.50
12125;DHT22;6126;57.908;16.490;2023-04-19T08:58:24;12.10;58.20
12125;DHT22;6126;57.908;16.490;2023-04-19T09:00:51;12.20;58.10
12125;DHT22;6126;57.908;16.490;2023-04-19T09:03:17;12.40;58.00
12125;DHT22;6126;57.908;16.490;2023-04-19T09:05:43;12.40;57.90
12125;DHT22;6126;57.908;16.490;2023-04-19T09:08:26;12.40;57.50
12125;DHT22;6126;57.908;16.490;2023-04-19T09:10:59;12.30;57.10
12125;DHT22;6126;57.908;16.490;2023-04-19T09:13:27;12.70;57.20
12125;DHT22;6126;57.908;16.490;2023-04-19T09:15:54;12.50;56.90
12125;DHT22;6126;57.908;16.490;2023-04-19T09:18:25;12.50;56.70
12125;DHT22;6126;57.908;16.490;2023-04-19T09:20:52;12.60;56.60
12125;DHT22;6126;57.908;16.490;2023-04-19T09:23:26;12.70;56.50
12125;DHT22;6126;57.908;16.490;2023-04-19T09:25:56;12.50;56.10
12125;DHT22;6126;57.908;16.490;2023-04-19T09:28:27;12.50;56.00
12125;DHT22;6126;57.908;16.490;2023-04-19T09:30:57;12.50;55.80
12125;DHT22;6126;57.908;16.490;2023-04-19T09:33:43;12.60;55.80
12125;DHT22;6126;57.908;16.490;2023-04-19T09:36:10;12.80;55.80
12125;DHT22;6126;57.908;16.490;2023-04-19T09:38:48;12.80;55.50
12125;DHT22;6126;57.908;16.490;2023-04-19T09:41:15;13.00;55.70
12125;DHT22;6126;57.908;16.490;2023-04-19T09:43:44;13.20;55.30
12125;DHT22;6126;57.908;16.490;2023-04-19T09:46:36;13.20;55.10
12125;DHT22;6126;57.908;16.490;2023-04-19T09:49:18;13.10;54.60
12125;DHT22;6126;57.908;16.490;2023-04-19T09:51:46;13.40;54.70
12125;DHT22;6126;57.908;16.490;2023-04-19T09:54:14;13.20;54.40
12125;DHT22;6126;57.908;16.490;2023-04-19T09:56:41;13.40;54.20
12125;DHT22;6126;57.908;16.490;2023-04-19T09:59:08;13.00;53.70
12125;DHT22;6126;57.908;16.490;2023-04-19T10:01:39;13.20;53.90
12125;DHT22;6126;57.908;16.490;2023-04-19T10:04:13;13.00;53.30
12125;DHT22;6126;57.908;16.490;2023-04-19T10:06:51;13.50;54.40
12125;DHT22;6126;57.908;16.490;2023-04-19T10:09:19;13.50;53.40
12125;DHT22;6126;57.908;16.490;2023-04-19T10:11:51;13.50;53.30
12125;DHT22;6126;57.908;16.490;2023-04-19T10:14:21;13.40;53.10
12125;DHT22;6126;57.908;16.490;2023-04-19T10:16:53;13.20;52.90
12125;DHT22;6126;57.908;16.490;2023-04-19T10:19:21;13.30;52.80
12125;DHT22;6126;57.908;16.490;2023-04-19T10:21:49;13.30;52.60
12125;DHT22;6126;57.908;16.490;2023-04-19T10:24:16;13.70;52.70
12125;DHT22;6126;57.908;16.490;2023-04-19T10:27:07;13.70;52.50
12125;DHT22;6126;57.908;16.490;2023-04-19T10:29:55;13.70;52.20
12125;DHT22;6126;57.908;16.490;2023-04-19T10:32:22;13.90;52.30
12125;DHT22;6126;57.908;16.490;2023-04-19T10:34:51;13.80;52.00
12125;DHT22;6126;57.908;16.490;2023-04-19T10:37:25;13.80;51.90
12125;DHT22;6126;57.908;16.490;2023-04-19T10:39:51;14.00;51.80
12125;DHT22;6126;57.908;16.490;2023-04-19T10:42:17;13.80;51.60
12125;DHT22;6126;57.908;16.490;2023-04-19T10:45:48;13.70;51.40
12125;DHT22;6126;57.908;16.490;2023-04-19T10:47:59;13.40;50.80
12125;DHT22;6126;57.908;16.490;2023-04-19T10:50:28;13.30;51.10
12125;DHT22;6126;57.908;16.490;2023-04-19T10:52:54;13.60;51.40
12125;DHT22;6126;57.908;16.490;2023-04-19T10:55:20;13.40;51.20
12125;DHT22;6126;57.908;16.490;2023-04-19T10:58:02;13.40;51.00
12125;DHT22;6126;57.908;16.490;2023-04-19T11:00:32;13.80;50.90
12125;DHT22;6126;57.908;16.490;2023-04-19T11:03:49;14.00;50.90
12125;DHT22;6126;57.908;16.490;2023-04-19T11:06:19;13.90;50.50
12125;DHT22;6126;57.908;16.490;2023-04-19T11:08:51;13.90;50.50
12125;DHT22;6126;57.908;16.490;2023-04-19T11:11:21;14.00;50.40
12125;DHT22;6126;57.908;16.490;2023-04-19T11:13:48;13.80;50.20
12125;DHT22;6126;57.908;16.490;2023-04-19T11:16:14;14.00;50.20
12125;DHT22;6126;57.908;16.490;2023-04-19T11:18:40;13.90;50.10
12125;DHT22;6126;57.908;16.490;2023-04-19T11:21:06;13.50;49.70
12125;DHT22;6126;57.908;16.490;2023-04-19T11:23:32;13.90;50.00
12125;DHT22;6126;57.908;16.490;2023-04-19T11:25:58;13.90;49.80
12125;DHT22;6126;57.908;16.490;2023-04-19T11:28:24;13.80;49.70
12125;DHT22;6126;57.908;16.490;2023-04-19T11:30:50;14.10;49.80
12125;DHT22;6126;57.908;16.490;2023-04-19T11:33:18;14.00;49.30
12125;DHT22;6126;57.908;16.490;2023-04-19T11:35:50;13.80;49.30
12125;DHT22;6126;57.908;16.490;2023-04-19T11:38:15;13.50;48.80
12125;DHT22;6126;57.908;16.490;2023-04-19T11:40:41;13.40;48.80
12125;DHT22;6126;57.908;16.490;2023-04-19T11:43:07;13.30;48.80
12125;DHT22;6126;57.908;16.490;2023-04-19T11:45:35;13.40;48.90
12125;DHT22;6126;57.908;16.490;2023-04-19T11:48:06;13.80;49.20
12125;DHT22;6126;57.908;16.490;2023-04-19T11:50:40;13.70;48.90
12125;DHT22;6126;57.908;16.490;2023-04-19T11:53:16;13.90;48.90
12125;DHT22;6126;57.908;16.490;2023-04-19T11:55:47;13.90;48.60
12125;DHT22;6126;57.908;16.490;2023-04-19T12:01:10;13.80;48.40
12125;DHT22;6126;57.908;16.490;2023-04-19T12:03:47;14.20;48.60
12125;DHT22;6126;57.908;16.490;2023-04-19T12:06:27;14.20;48.50
12125;DHT22;6126;57.908;16.490;2023-04-19T12:08:57;14.00;48.10
12125;DHT22;6126;57.908;16.490;2023-04-19T12:11:46;14.10;48.10
12125;DHT22;6126;57.908;16.490;2023-04-19T12:14:16;14.20;48.10
12125;DHT22;6126;57.908;16.490;2023-04-19T12:17:10;14.10;48.00
12125;DHT22;6126;57.908;16.490;2023-04-19T12:19:45;14.40;48.30
12125;DHT22;6126;57.908;16.490;2023-04-19T12:22:17;14.20;48.00
12125;DHT22;6126;57.908;16.490;2023-04-19T12:24:52;14.40;48.20
12125;DHT22;6126;57.908;16.490;2023-04-19T12:27:19;14.40;48.00
12125;DHT22;6126;57.908;16.490;2023-04-19T12:29:45;14.50;48.00
12125;DHT22;6126;57.908;16.490;2023-04-19T12:32:11;14.50;48.10
12125;DHT22;6126;57.908;16.490;2023-04-19T12:34:37;14.20;47.90
12125;DHT22;6126;57.908;16.490;2023-04-19T12:37:03;14.30;48.00
12125;DHT22;6126;57.908;16.490;2023-04-19T12:39:29;14.30;48.00
12125;DHT22;6126;57.908;16.490;2023-04-19T12:41:56;14.20;48.00
12125;DHT22;6126;57.908;16.490;2023-04-19T12:44:22;14.10;48.00
12125;DHT22;6126;57.908;16.490;2023-04-19T12:46:48;13.70;47.90
12125;DHT22;6126;57.908;16.490;2023-04-19T12:49:17;13.60;47.70
12125;DHT22;6126;57.908;16.490;2023-04-19T12:51:44;13.60;47.80
12125;DHT22;6126;57.908;16.490;2023-04-19T12:54:12;13.60;47.60
12125;DHT22;6126;57.908;16.490;2023-04-19T12:56:38;13.70;47.70
12125;DHT22;6126;57.908;16.490;2023-04-19T12:59:04;13.70;47.70
12125;DHT22;6126;57.908;16.490;2023-04-19T13:01:31;14.00;47.80
12125;DHT22;6126;57.908;16.490;2023-04-19T13:03:57;13.70;47.30
12125;DHT22;6126;57.908;16.490;2023-04-19T13:06:23;13.60;47.20
12125;DHT22;6126;57.908;16.490;2023-04-19T13:08:49;13.60;47.40
12125;DHT22;6126;57.908;16.490;2023-04-19T13:11:15;13.40;47.30
12125;DHT22;6126;57.908;16.490;2023-04-19T13:13:42;13.30;47.10
12125;DHT22;6126;57.908;16.490;2023-04-19T13:16:08;13.50;47.20
12125;DHT22;6126;57.908;16.490;2023-04-19T13:18:34;13.50;47.00
12125;DHT22;6126;57.908;16.490;2023-04-19T13:20:59;13.50;46.90
12125;DHT22;6126;57.908;16.490;2023-04-19T13:23:25;13.80;47.10
12125;DHT22;6126;57.908;16.490;2023-04-19T13:25:51;14.00;47.00
12125;DHT22;6126;57.908;16.490;2023-04-19T13:28:17;13.70;46.70
12125;DHT22;6126;57.908;16.490;2023-04-19T13:30:43;14.00;47.30
12125;DHT22;6126;57.908;16.490;2023-04-19T13:33:09;13.80;46.80
12125;DHT22;6126;57.908;16.490;2023-04-19T13:35:35;13.90;46.90
12125;DHT22;6126;57.908;16.490;2023-04-19T13:38:01;13.90;46.60
12125;DHT22;6126;57.908;16.490;2023-04-19T13:40:26;13.80;46.30
12125;DHT22;6126;57.908;16.490;2023-04-19T13:42:52;13.40;46.30
12125;DHT22;6126;57.908;16.490;2023-04-19T13:45:19;13.60;46.70
12125;DHT22;6126;57.908;16.490;2023-04-19T13:47:45;13.40;46.60
12125;DHT22;6126;57.908;16.490;2023-04-19T13:50:11;13.70;46.70
12125;DHT22;6126;57.908;16.490;2023-04-19T13:52:37;13.40;46.60
12125;DHT22;6126;57.908;16.490;2023-04-19T13:55:03;13.70;46.60
12125;DHT22;6126;57.908;16.490;2023-04-19T13:57:29;13.50;46.30
12125;DHT22;6126;57.908;16.490;2023-04-19T13:59:55;13.80;46.70
12125;DHT22;6126;57.908;16.490;2023-04-19T14:02:21;13.40;46.40
12125;DHT22;6126;57.908;16.490;2023-04-19T14:04:47;13.50;46.40
12125;DHT22;6126;57.908;16.490;2023-04-19T14:07:13;13.70;46.50
12125;DHT22;6126;57.908;16.490;2023-04-19T14:09:38;13.80;46.40
12125;DHT22;6126;57.908;16.490;2023-04-19T14:12:05;14.10;46.50
12125;DHT22;6126;57.908;16.490;2023-04-19T14:14:33;14.00;46.40
12125;DHT22;6126;57.908;16.490;2023-04-19T14:16:59;14.10;46.50
12125;DHT22;6126;57.908;16.490;2023-04-19T14:19:25;13.70;46.30
12125;DHT22;6126;57.908;16.490;2023-04-19T14:21:51;13.60;46.50
12125;DHT22;6126;57.908;16.490;2023-04-19T14:24:17;13.60;46.60
12125;DHT22;6126;57.908;16.490;2023-04-19T14:26:42;13.40;46.40
12125;DHT22;6126;57.908;16.490;2023-04-19T14:29:08;13.60;46.50
12125;DHT22;6126;57.908;16.490;2023-04-19T14:31:35;13.50;46.60
12125;DHT22;6126;57.908;16.490;2023-04-19T14:34:00;13.40;46.60
12125;DHT22;6126;57.908;16.490;2023-04-19T14:36:26;13.20;46.50
12125;DHT22;6126;57.908;16.490;2023-04-19T14:38:52;13.30;46.60
12125;DHT22;6126;57.908;16.490;2023-04-19T14:41:18;13.70;46.60
12125;DHT22;6126;57.908;16.490;2023-04-19T14:43:44;13.50;46.50
12125;DHT22;6126;57.908;16.490;2023-04-19T14:46:10;13.30;46.50
12125;DHT22;6126;57.908;16.490;2023-04-19T14:48:36;13.00;46.30
12125;DHT22;6126;57.908;16.490;2023-04-19T14:51:02;12.90;46.60
12125;DHT22;6126;57.908;16.490;2023-04-19T14:53:28;12.70;46.70
12125;DHT22;6126;57.908;16.490;2023-04-19T14:55:54;12.70;46.80
12125;DHT22;6126;57.908;16.490;2023-04-19T14:58:20;12.90;46.80
12125;DHT22;6126;57.908;16.490;2023-04-19T15:00:46;12.80;46.60
12125;DHT22;6126;57.908;16.490;2023-04-19T15:03:11;12.80;46.60
12125;DHT22;6126;57.908;16.490;2023-04-19T15:05:37;12.80;46.70
12125;DHT22;6126;57.908;16.490;2023-04-19T15:08:03;13.00;47.10
12125;DHT22;6126;57.908;16.490;2023-04-19T15:10:29;12.40;46.70
12125;DHT22;6126;57.908;16.490;2023-04-19T15:12:55;12.50;46.80
12125;DHT22;6126;57.908;16.490;2023-04-19T15:15:22;12.70;47.00
12125;DHT22;6126;57.908;16.490;2023-04-19T15:17:48;12.80;47.10
12125;DHT22;6126;57.908;16.490;2023-04-19T15:20:14;12.60;47.10
12125;DHT22;6126;57.908;16.490;2023-04-19T15:22:40;12.60;47.10
12125;DHT22;6126;57.908;16.490;2023-04-19T15:25:06;12.40;47.10
12125;DHT22;6126;57.908;16.490;2023-04-19T15:27:32;12.40;47.10
12125;DHT22;6126;57.908;16.490;2023-04-19T15:29:58;12.50;47.20
12125;DHT22;6126;57.908;16.490;2023-04-19T15:32:24;12.60;47.90
12125;DHT22;6126;57.908;16.490;2023-04-19T15:34:50;12.60;47.30
12125;DHT22;6126;57.908;16.490;2023-04-19T15:37:16;12.60;47.40
12125;DHT22;6126;57.908;16.490;2023-04-19T15:39:42;12.30;47.30
12125;DHT22;6126;57.908;16.490;2023-04-19T15:42:08;12.30;47.50